Name Time T Air Rain Solar RH Wind speed Wind speed max.
IKC Ardmona Weather Station 19/03/2019 7:15 PM 26.9 °C 0.00 mm 8.3 W/m² 48.9 % RH 0.00 km/h -
IKC Bunbartha Weather Station 19/03/2019 7:15 PM 26.5 °C 0.00 mm 2.9 W/m² 49.7 % RH 0.00 km/h -
Bunbartha Sen-R (40477) 18/03/2015 12:00 PM 21.2 °C - - 69.6 % RH - -
IKC Cobram Weather Station 19/03/2019 7:13 PM 26.4 °C 0.00 mm 40.0 W/m² 48.8 % RH 0.00 km/h 0.29 km/h
IKC Grahamvale Weather Station 19/03/2019 7:30 PM 25.4 °C 0.00 mm 1.0 W/m² 48.1 % RH 0.10 km/h -
IKC Kialla Weather Station 02/06/2017 3:15 PM 14.4 °C 0.00 mm 283.3 W/m² 56.8 % RH 3.37 km/h 39.76 km/h
IKC Corowa Weather Station 19/03/2019 6:45 PM 31.8 °C 0.00 mm - 30.8 % RH - -
IKC Invergordon Weather Station 19/03/2019 7:30 PM 27.7 °C 0.00 mm - 44.5 % RH - -
IKC Shepp East Weather Station 19/03/2019 7:00 PM 29.2 °C 0.00 mm - 41.4 % RH 5.76 km/h -
IKC Rutherglen Weather Station 19/03/2019 7:15 PM 30.0 °C 0.00 mm 32.6 W/m² 34.2 % RH 3.52 km/h -
Bolitho Block B8 C-Probe Rain (8262) 09/02/2009 7:59 AM - 0.00 mm - - - -
Block 5 (15806) 19/03/2019 7:30 PM 25.2 °C 0.00 mm - 52.4 % RH - -
River - Block Apples (35964) 23/01/2019 12:29 PM 33.9 °C 0.00 mm - 28.3 % RH - -
Marenny Orchard WS (36457) 19/03/2019 7:00 PM 29.7 °C 0.00 mm 86.9 W/m² 37.4 % RH 0.05 km/h -
Mattina Block 30 R4 19/03/2019 7:15 PM 26.3 °C 0.00 mm - 43.1 % RH - -
Apricots - Frost SMM (36845) 19/03/2019 7:30 PM 26.7 °C - - 11.6 % RH - -
CHD 03B (28408) 21/02/2019 11:30 AM - 0.00 mm - - - -
Pears (37730) 19/03/2019 7:15 PM 28.2 °C 0.00 mm - 43.2 % RH - -
Baxter - A755 GSM (53426) 31/12/2014 7:02 AM - 0.00 mm - - - -
IKC - A753 GSM (49171) 31/01/2013 5:00 PM - 0.00 mm - - - -
Tallagaroopna GS Row 40 (45866) 17/04/2018 3:00 PM 0.0 °C - - 0.0 % RH - -
Block 53 (28411) --- 0.0 °C - - 0.0 % RH - -
Block 80 (35537) 19/03/2019 7:08 PM 28.1 °C 0.00 mm - 32.4 % RH - -
Cornish Weather Station (24499) - Seven Hills 19/03/2019 7:30 PM 27.5 °C 0.00 mm - 44.7 % RH - -
Corboy B5 (35766) 19/03/2019 6:30 PM 0.0 °C 0.00 mm - 0.0 % RH - -
Dhurringile B6 (35763) 14/12/2016 9:30 AM 17.0 °C 0.00 mm - 77.2 % RH - -
Willowbank WBC (13667) 14/12/2016 12:00 PM 0.0 °C - - 0.0 % RH - -
Plantation WS 27/12/2017 8:46 PM 0.0 °C 0.00 mm 0.0 W/m² 0.0 % RH 0.00 km/h -
Rosaia WS 08/02/2019 8:00 AM 19.7 °C 0.00 mm - 91.7 % RH 15.37 km/h -
Mitta Mitta - Probe (41857) 19/03/2019 4:30 PM 23.6 °C 0.00 mm - 70.1 % RH - -
Zagami Weather Station (49883) 29/12/2015 4:45 PM 24.1 °C 0.00 mm - 49.9 % RH - -
MurtonRd Frost 19/03/2019 7:00 PM 29.1 °C 0.00 mm - 41.3 % RH - -
Costaville Frost 19/03/2019 7:00 PM 27.9 °C 0.00 mm - 48.8 % RH - -
Kaarimba Frost 19/03/2019 9:15 AM 20.4 °C 0.00 mm - 78.0 % RH - -
Lockington Landcare - Jenharwill (55110) 19/03/2019 7:00 PM - 0.00 mm - - - -
Lockington Landcare - Russell Hocking (55129) 19/03/2019 7:00 PM - 0.00 mm - - - -
Lockington LC - Wright - WS (49171) 19/03/2019 7:15 PM 0.0 °C 0.00 mm - 0.0 % RH 0.14 km/h -
Lockington LC - Sims Fire Station - WS (55116) 19/03/2019 7:15 PM 29.1 °C 0.00 mm - 34.6 % RH 6.15 km/h -
Lockington LC - Sims Terricks - WS (55131) 19/03/2019 7:30 PM 0.0 °C 0.00 mm - 0.0 % RH 0.00 km/h -
Lockington Landcare - John Eade (55128) 19/03/2019 7:00 PM - 0.00 mm - - - -
Lockington LC - OSullivan Kings - WS (55120) 19/03/2019 7:15 PM 29.3 °C 0.00 mm - 41.1 % RH 12.36 km/h -
Doug Hatty (53098) 05/12/2018 5:00 AM - 0.00 mm - - - -
Geddes WS (56268) 19/03/2019 6:30 PM 0.0 °C 0.00 mm - 0.0 % RH - -
Stedman WS (56223) 27/12/2018 3:56 AM 0.0 °C 0.00 mm - 0.0 % RH - -
McKinley WS (56264) 19/03/2019 7:00 PM 29.7 °C 0.00 mm - 38.5 % RH - -
Ludeman WS (53099) 19/03/2019 7:00 PM 0.0 °C 0.00 mm - 0.0 % RH - -
Harmer WS (56241) 19/03/2019 6:30 PM 30.4 °C 0.00 mm - 32.0 % RH - -
Anker WS (56239) 19/03/2019 7:00 PM 30.4 °C 0.00 mm - 100.0 % RH - -
Ferrier (56221) 19/03/2019 7:00 PM 30.2 °C 0.00 mm - 100.0 % RH - -
Launder (56260) 21/07/2017 3:33 PM 0.0 °C 0.00 mm - 0.0 % RH - -
McClelland (56229) 19/03/2019 7:00 PM 30.2 °C 0.00 mm - 25.2 % RH - -
IKC (53420) 26/06/2014 4:00 PM - 0.00 mm - - - -
WP V07 (853429) WS 19/03/2019 7:15 PM 29.6 °C 0.00 mm 7.2 W/m² 33.2 % RH 1.81 km/h -
WP N14 (864266) EP 11/03/2019 9:00 AM - 0.60 mm - - - -
WP N15 (864206) EP 19/03/2019 7:00 PM - 0.00 mm - - - -
WP N13 (864203) EP 19/03/2019 7:00 PM - 0.00 mm - - - -
WP N25 (864353) EP 19/03/2019 7:00 PM - 0.00 mm - - - -
WP N18 (864354) EP 19/03/2019 7:00 PM - 0.00 mm - - - -
WP V06 (864362) 19/03/2019 7:15 PM 29.7 °C 0.00 mm - 37.0 % RH 2.84 km/h -
IKC WS - Kyagre 19/03/2019 7:15 PM 30.3 °C 0.00 mm - 28.3 % RH 11.89 km/h -
WP V02 (864349) 19/03/2019 7:15 PM 28.2 °C - - 46.1 % RH 0.00 km/h -
Dave Vigliaturo (864447) EP80 RG 19/03/2019 7:00 PM - 0.00 mm - - - -
WP V24 (511609) EP80 19/03/2019 7:00 PM - 0.00 mm - - - -
Wintersun Weather Station 19/03/2019 7:00 PM 27.6 °C 0.00 mm - 42.6 % RH - -
Merlot R47 (13663) 19/03/2019 7:26 PM - 0.00 mm - - - -
Katandra Walnuts (56229) 19/03/2019 7:00 PM - 0.00 mm - - - -
UAH Nunya (58083) 19/03/2019 7:15 PM 28.5 °C 0.00 mm - 38.7 % RH 11.20 km/h -
Grassmere (56222) 19/03/2019 7:00 PM 31.0 °C 0.00 mm - 30.2 % RH 10.25 km/h -
UAH Triangle (58088) 19/03/2019 7:15 PM 29.0 °C 0.00 mm - 38.1 % RH 9.52 km/h -
One Tree Hill (57574) 19/03/2019 7:15 PM 28.8 °C 0.00 mm - 35.5 % RH 7.90 km/h -
Mahonga Park (57571) 19/03/2019 7:15 PM 29.7 °C 0.00 mm - 34.0 % RH 8.63 km/h -
Hilltop (57573) 19/03/2019 7:15 PM 28.6 °C 0.00 mm - 37.0 % RH 5.49 km/h -
Buckingbong (56227) 19/03/2019 6:45 PM 31.4 °C 0.00 mm - 31.2 % RH 10.75 km/h -
Forbes WS 19/03/2019 7:15 PM 28.5 °C 0.00 mm 2.3 W/m² 39.1 % RH 8.22 km/h -
Temp Station (59225) 18/01/2017 6:03 PM 0.0 °C 0.00 mm - 0.0 % RH - -
Rand 19/03/2019 7:15 PM 29.9 °C 0.00 mm - 31.2 % RH 9.58 km/h -
Berrigan 19/03/2019 7:15 PM 29.6 °C 0.00 mm - 24.6 % RH 8.19 km/h -
Culcairn 19/03/2019 7:15 PM 29.0 °C 0.00 mm - 36.6 % RH 5.59 km/h -
Lockhart 19/03/2019 7:15 PM 29.7 °C 0.00 mm - 34.4 % RH 5.80 km/h -
Pleasant Hills 19/03/2019 7:15 PM 28.0 °C 0.00 mm - 33.5 % RH 5.65 km/h -
Barooga 19/03/2019 7:15 PM 29.6 °C 0.00 mm - 29.6 % RH 9.13 km/h -
Henty Field Day Site 19/03/2019 7:15 PM 29.0 °C 0.00 mm - 37.2 % RH 9.58 km/h -
Bungeet 19/03/2019 7:15 PM 29.6 °C 0.00 mm - 35.1 % RH 11.47 km/h -
Miepoll 19/03/2019 7:15 PM 27.6 °C 0.00 mm - 43.9 % RH 15.81 km/h -
Rand - Test RG 04/09/2018 2:15 PM - 0.00 mm - - - -
Howlong 19/03/2019 7:15 PM 0.0 °C 0.00 mm - 0.0 % RH 4.53 km/h -
Rutherglen 19/03/2019 7:15 PM 29.5 °C 0.00 mm - 30.0 % RH 6.13 km/h -
Telford 19/03/2019 7:15 PM 29.2 °C 0.00 mm - 31.6 % RH 6.43 km/h -
Yabba South 19/03/2019 7:30 PM 28.2 °C 0.00 mm - 37.9 % RH 12.49 km/h -
Mladenov Frost Sensor 19/03/2019 7:15 PM 27.9 °C 0.00 mm - 43.0 % RH - -
Weather Station (54928) 19/03/2019 7:15 PM 28.8 °C 0.00 mm 46.1 W/m² 39.7 % RH 13.53 km/h -
Rathscar 19/03/2019 7:30 PM - 0.00 mm - - - -
Dunluce 19/03/2019 7:15 PM 25.7 °C 0.00 mm - 48.2 % RH 16.45 km/h -
Archdale 19/03/2019 7:15 PM 25.5 °C 0.00 mm - 49.5 % RH 13.93 km/h -
Natte Yallock 19/03/2019 7:15 PM - 0.00 mm - - - -
Campbell Forest 19/03/2019 7:15 PM 29.6 °C 0.00 mm - 31.2 % RH 6.78 km/h -
Robinvale WS 19/03/2019 7:15 PM 30.1 °C 0.00 mm - 27.5 % RH - -
Block 33 Oranges (39561) 19/03/2019 7:00 PM - 0.00 mm - - - -
BA Trial Site Barooga - Canola (11924) - WS SMM 26/10/2008 10:58 PM 21.1 °C 0.00 mm 0.0 W/m² 26.7 % RH 7.50 km/h 7.50 km/h
BA Trial Site Dookie - Canola (13115) - WS SMM 24/10/2008 4:41 PM 24.7 °C 0.00 mm 805.9 W/m² 19.0 % RH 4.10 km/h 4.10 km/h
Barooga Trial Site - WS (27599) 23/10/2010 10:13 PM 9.3 °C 0.00 mm - 72.3 % RH 16.00 km/h 16.00 km/h
IKC Dookie Weather Station (13115) - College 28/04/2010 11:46 AM 15.6 °C 0.00 mm 334.1 W/m² 74.1 % RH 8.35 km/h 8.35 km/h
Barooga Weather Station (36457) 26/11/2009 10:15 AM 29.7 °C 0.00 mm 488.4 W/m² 45.2 % RH 27.30 km/h 27.30 km/h
Barooga Trial Site WS (35526) 14/12/2012 8:23 AM 0.0 °C - - 0.0 % RH 0.00 km/h 0.00 km/h
Pivot (36484) 22/07/2013 12:30 PM - 0.00 mm - - - -
WS (46748) 19/03/2019 7:15 PM 29.9 °C 0.00 mm 63.6 W/m² 25.5 % RH 5.58 km/h -
WS - 18 Back (45966) 17/01/2013 8:00 AM 0.0 °C - - - 0.00 km/h 0.00 km/h
WS - Front (42157) 13/03/2015 7:32 PM 0.0 °C - - - 0.00 km/h 0.00 km/h
Windmill Bore - LevelTrolll (41606) 20/06/2014 9:30 AM 999,999.0 °C 0.00 mm - - - -
(41834) 02/05/2011 1:59 PM - 0.00 mm - - - -
Ross Wheelhouse - ET WS (35215) --- - - - - - -
Ross Wheelhouse - Frost LW SMM (36913) --- - - - - - -
Myrtleford - Ky D Pac WS --- - - - - - -
Vigliaturo 19/03/2019 7:15 PM 26.6 °C 0.00 mm - 42.3 % RH - -
Stonier Wines 03/08/2017 2:00 PM 10.3 °C 0.00 mm - 79.0 % RH 29.68 km/h -
Montalto Vineyard 19/03/2019 7:15 PM 18.5 °C 0.00 mm - 94.5 % RH 4.57 km/h -
Ten Minutes By Tractor 19/03/2019 7:15 PM 17.0 °C 0.00 mm - 97.7 % RH 11.27 km/h -
Moorooduc Estate 19/03/2019 7:30 PM 18.8 °C 0.00 mm - 93.0 % RH 13.51 km/h -
Robinson 19/03/2019 7:30 PM 18.3 °C 0.00 mm - 93.0 % RH 8.06 km/h -
Elgee Park 19/03/2019 7:15 PM 17.9 °C 0.00 mm - 94.4 % RH 16.03 km/h -
Paringa Estate 19/03/2019 7:15 PM 17.9 °C 0.00 mm - 95.2 % RH 4.66 km/h -
A solution by ADCON Telemetry | Smart wireless solutions
Visit adcon.com